sensor_id;sensor_type;location;lat;lon;timestamp;pressure;altitude;pressure_sealevel;temperature;humidity
11912;BME280;6016;41.928;25.556;2022-11-15T00:00:56;99845.00;;;8.30;75.72
11912;BME280;6016;41.928;25.556;2022-11-15T00:03:25;99841.84;;;8.38;75.48
11912;BME280;6016;41.928;25.556;2022-11-15T00:05:52;99844.47;;;8.38;75.25
11912;BME280;6016;41.928;25.556;2022-11-15T00:08:18;99837.84;;;8.45;75.49
11912;BME280;6016;41.928;25.556;2022-11-15T00:10:53;99833.13;;;8.51;75.03
11912;BME280;6016;41.928;25.556;2022-11-15T00:13:20;99840.69;;;8.55;75.15
11912;BME280;6016;41.928;25.556;2022-11-15T00:15:48;99837.50;;;8.63;75.99
11912;BME280;6016;41.928;25.556;2022-11-15T00:18:14;99842.28;;;8.58;75.24
11912;BME280;6016;41.928;25.556;2022-11-15T00:20:41;99838.19;;;8.54;75.47
11912;BME280;6016;41.928;25.556;2022-11-15T00:23:08;99835.19;;;8.58;75.82
11912;BME280;6016;41.928;25.556;2022-11-15T00:25:34;99836.38;;;8.67;75.87
11912;BME280;6016;41.928;25.556;2022-11-15T00:28:01;99833.50;;;8.70;76.27
11912;BME280;6016;41.928;25.556;2022-11-15T00:30:28;99824.13;;;8.79;75.93
11912;BME280;6016;41.928;25.556;2022-11-15T00:32:56;99823.56;;;8.87;76.17
11912;BME280;6016;41.928;25.556;2022-11-15T00:35:23;99822.06;;;8.96;77.21
11912;BME280;6016;41.928;25.556;2022-11-15T00:37:49;99815.41;;;9.03;78.05
11912;BME280;6016;41.928;25.556;2022-11-15T00:40:16;99817.38;;;9.12;77.92
11912;BME280;6016;41.928;25.556;2022-11-15T00:42:42;99817.84;;;9.18;78.37
11912;BME280;6016;41.928;25.556;2022-11-15T00:45:09;99809.53;;;9.24;78.39
11912;BME280;6016;41.928;25.556;2022-11-15T00:47:36;99809.91;;;9.31;78.48
11912;BME280;6016;41.928;25.556;2022-11-15T00:50:04;99804.41;;;9.34;78.52
11912;BME280;6016;41.928;25.556;2022-11-15T00:52:31;99807.34;;;9.18;78.99
11912;BME280;6016;41.928;25.556;2022-11-15T00:54:57;99800.06;;;9.21;79.15
11912;BME280;6016;41.928;25.556;2022-11-15T00:57:24;99800.78;;;9.23;79.69
11912;BME280;6016;41.928;25.556;2022-11-15T00:59:50;99806.53;;;9.28;79.94
11912;BME280;6016;41.928;25.556;2022-11-15T01:02:17;99799.59;;;9.27;80.12
11912;BME280;6016;41.928;25.556;2022-11-15T01:04:44;99802.97;;;9.29;80.28
11912;BME280;6016;41.928;25.556;2022-11-15T01:07:11;99797.56;;;9.31;80.12
11912;BME280;6016;41.928;25.556;2022-11-15T01:09:38;99794.56;;;9.24;80.08
11912;BME280;6016;41.928;25.556;2022-11-15T01:12:05;99796.75;;;9.31;80.40
11912;BME280;6016;41.928;25.556;2022-11-15T01:14:31;99787.56;;;9.36;80.46
11912;BME280;6016;41.928;25.556;2022-11-15T01:16:58;99794.50;;;9.37;80.39
11912;BME280;6016;41.928;25.556;2022-11-15T01:19:24;99790.72;;;9.28;80.62
11912;BME280;6016;41.928;25.556;2022-11-15T01:21:51;99789.94;;;9.39;80.27
11912;BME280;6016;41.928;25.556;2022-11-15T01:24:19;99796.41;;;9.47;80.29
11912;BME280;6016;41.928;25.556;2022-11-15T01:26:45;99791.03;;;9.48;80.69
11912;BME280;6016;41.928;25.556;2022-11-15T01:29:12;99791.66;;;9.52;80.43
11912;BME280;6016;41.928;25.556;2022-11-15T01:31:38;99794.69;;;9.34;80.68
11912;BME280;6016;41.928;25.556;2022-11-15T01:34:05;99784.63;;;8.92;81.86
11912;BME280;6016;41.928;25.556;2022-11-15T01:36:31;99789.53;;;8.97;82.30
11912;BME280;6016;41.928;25.556;2022-11-15T01:38:58;99783.94;;;9.01;82.39
11912;BME280;6016;41.928;25.556;2022-11-15T01:41:27;99786.78;;;9.23;82.10
11912;BME280;6016;41.928;25.556;2022-11-15T01:43:55;99791.31;;;9.21;82.11
11912;BME280;6016;41.928;25.556;2022-11-15T01:46:23;99787.38;;;9.26;81.39
11912;BME280;6016;41.928;25.556;2022-11-15T01:48:51;99786.66;;;9.24;80.81
11912;BME280;6016;41.928;25.556;2022-11-15T01:51:19;99785.47;;;9.28;80.93
11912;BME280;6016;41.928;25.556;2022-11-15T01:53:48;99782.19;;;9.13;81.52
11912;BME280;6016;41.928;25.556;2022-11-15T01:56:16;99772.88;;;8.72;81.97
11912;BME280;6016;41.928;25.556;2022-11-15T01:58:46;99771.19;;;8.84;82.46
11912;BME280;6016;41.928;25.556;2022-11-15T02:01:12;99778.41;;;8.93;82.13
11912;BME280;6016;41.928;25.556;2022-11-15T02:03:41;99765.03;;;8.96;82.54
11912;BME280;6016;41.928;25.556;2022-11-15T02:06:10;99771.00;;;8.98;82.64
11912;BME280;6016;41.928;25.556;2022-11-15T02:08:36;99770.59;;;9.16;82.33
11912;BME280;6016;41.928;25.556;2022-11-15T02:11:04;99766.97;;;9.06;82.51
11912;BME280;6016;41.928;25.556;2022-11-15T02:13:30;99771.00;;;8.74;83.44
11912;BME280;6016;41.928;25.556;2022-11-15T02:16:01;99765.25;;;8.93;83.09
11912;BME280;6016;41.928;25.556;2022-11-15T02:18:32;99763.41;;;9.07;83.06
11912;BME280;6016;41.928;25.556;2022-11-15T02:21:09;99761.88;;;9.15;82.61
11912;BME280;6016;41.928;25.556;2022-11-15T02:23:45;99761.41;;;9.22;82.75
11912;BME280;6016;41.928;25.556;2022-11-15T02:26:26;99758.56;;;9.25;82.46
11912;BME280;6016;41.928;25.556;2022-11-15T02:28:58;99757.97;;;9.33;82.13
11912;BME280;6016;41.928;25.556;2022-11-15T02:31:29;99753.81;;;9.41;82.09
11912;BME280;6016;41.928;25.556;2022-11-15T02:33:59;99755.47;;;9.42;81.53
11912;BME280;6016;41.928;25.556;2022-11-15T02:36:32;99756.91;;;9.47;81.68
11912;BME280;6016;41.928;25.556;2022-11-15T02:39:02;99761.50;;;9.56;81.31
11912;BME280;6016;41.928;25.556;2022-11-15T02:41:30;99764.75;;;9.60;81.26
11912;BME280;6016;41.928;25.556;2022-11-15T02:44:02;99761.75;;;9.53;81.56
11912;BME280;6016;41.928;25.556;2022-11-15T02:46:33;99757.91;;;9.57;81.67
11912;BME280;6016;41.928;25.556;2022-11-15T02:49:18;99755.88;;;9.61;81.30
11912;BME280;6016;41.928;25.556;2022-11-15T02:51:46;99760.66;;;9.67;81.71
11912;BME280;6016;41.928;25.556;2022-11-15T02:54:15;99759.59;;;9.69;81.52
11912;BME280;6016;41.928;25.556;2022-11-15T02:56:42;99756.16;;;9.69;81.35
11912;BME280;6016;41.928;25.556;2022-11-15T02:59:13;99766.34;;;9.74;80.81
11912;BME280;6016;41.928;25.556;2022-11-15T03:01:47;99752.91;;;9.77;80.50
11912;BME280;6016;41.928;25.556;2022-11-15T03:04:25;99748.25;;;9.80;80.48
11912;BME280;6016;41.928;25.556;2022-11-15T03:06:57;99753.41;;;9.82;80.61
11912;BME280;6016;41.928;25.556;2022-11-15T03:09:28;99754.47;;;9.79;79.49
11912;BME280;6016;41.928;25.556;2022-11-15T03:11:59;99758.06;;;9.78;80.33
11912;BME280;6016;41.928;25.556;2022-11-15T03:14:29;99755.06;;;9.83;80.29
11912;BME280;6016;41.928;25.556;2022-11-15T03:16:58;99751.25;;;9.87;79.40
11912;BME280;6016;41.928;25.556;2022-11-15T03:19:30;99750.16;;;9.78;79.91
11912;BME280;6016;41.928;25.556;2022-11-15T03:21:58;99750.63;;;9.61;80.38
11912;BME280;6016;41.928;25.556;2022-11-15T03:24:26;99750.50;;;9.51;80.59
11912;BME280;6016;41.928;25.556;2022-11-15T03:26:55;99752.16;;;9.52;80.85
11912;BME280;6016;41.928;25.556;2022-11-15T03:29:24;99746.75;;;9.42;80.96
11912;BME280;6016;41.928;25.556;2022-11-15T03:31:54;99745.91;;;9.41;81.48
11912;BME280;6016;41.928;25.556;2022-11-15T03:34:25;99747.09;;;9.37;82.00
11912;BME280;6016;41.928;25.556;2022-11-15T03:36:53;99739.69;;;9.42;81.99
11912;BME280;6016;41.928;25.556;2022-11-15T03:39:20;99732.72;;;9.30;82.05
11912;BME280;6016;41.928;25.556;2022-11-15T03:41:48;99735.63;;;9.38;81.59
11912;BME280;6016;41.928;25.556;2022-11-15T03:44:17;99729.97;;;9.32;81.99
11912;BME280;6016;41.928;25.556;2022-11-15T03:46:47;99727.94;;;9.47;81.63
11912;BME280;6016;41.928;25.556;2022-11-15T03:49:19;99732.53;;;9.56;81.26
11912;BME280;6016;41.928;25.556;2022-11-15T03:51:50;99728.94;;;9.68;80.81
11912;BME280;6016;41.928;25.556;2022-11-15T03:54:16;99723.94;;;9.77;80.45
11912;BME280;6016;41.928;25.556;2022-11-15T03:56:43;99726.94;;;9.83;79.92
11912;BME280;6016;41.928;25.556;2022-11-15T03:59:09;99723.09;;;9.88;79.94
11912;BME280;6016;41.928;25.556;2022-11-15T04:01:36;99724.66;;;9.90;79.97
11912;BME280;6016;41.928;25.556;2022-11-15T04:04:03;99722.03;;;9.90;79.60
11912;BME280;6016;41.928;25.556;2022-11-15T04:06:29;99721.41;;;9.87;79.78
11912;BME280;6016;41.928;25.556;2022-11-15T04:08:57;99719.50;;;9.89;79.63
11912;BME280;6016;41.928;25.556;2022-11-15T04:11:24;99724.66;;;9.90;79.22
11912;BME280;6016;41.928;25.556;2022-11-15T04:13:50;99718.44;;;9.91;79.23
11912;BME280;6016;41.928;25.556;2022-11-15T04:16:17;99722.13;;;9.89;79.50
11912;BME280;6016;41.928;25.556;2022-11-15T04:18:43;99716.63;;;9.92;79.41
11912;BME280;6016;41.928;25.556;2022-11-15T04:21:10;99715.69;;;9.93;79.28
11912;BME280;6016;41.928;25.556;2022-11-15T04:23:54;99713.88;;;9.93;78.87
11912;BME280;6016;41.928;25.556;2022-11-15T04:26:44;99707.78;;;9.93;79.55
11912;BME280;6016;41.928;25.556;2022-11-15T04:29:11;99708.59;;;9.93;79.44
11912;BME280;6016;41.928;25.556;2022-11-15T04:31:55;99712.66;;;9.97;79.24
11912;BME280;6016;41.928;25.556;2022-11-15T04:34:21;99705.72;;;9.96;79.68
11912;BME280;6016;41.928;25.556;2022-11-15T04:36:48;99705.72;;;9.96;79.14
11912;BME280;6016;41.928;25.556;2022-11-15T04:39:32;99702.88;;;9.88;79.81
11912;BME280;6016;41.928;25.556;2022-11-15T04:42:00;99712.31;;;9.91;79.82
11912;BME280;6016;41.928;25.556;2022-11-15T04:44:26;99703.34;;;9.93;79.39
11912;BME280;6016;41.928;25.556;2022-11-15T04:46:53;99705.72;;;9.96;80.17
11912;BME280;6016;41.928;25.556;2022-11-15T04:49:20;99701.06;;;10.00;80.18
11912;BME280;6016;41.928;25.556;2022-11-15T04:51:46;99706.31;;;10.00;79.13
11912;BME280;6016;41.928;25.556;2022-11-15T04:54:13;99711.25;;;10.05;79.36
11912;BME280;6016;41.928;25.556;2022-11-15T04:56:39;99705.72;;;10.08;79.16
11912;BME280;6016;41.928;25.556;2022-11-15T04:59:07;99710.16;;;10.07;79.63
11912;BME280;6016;41.928;25.556;2022-11-15T05:01:34;99702.97;;;10.09;79.15
11912;BME280;6016;41.928;25.556;2022-11-15T05:04:00;99701.91;;;10.12;78.12
11912;BME280;6016;41.928;25.556;2022-11-15T05:06:41;99701.66;;;10.15;78.36
11912;BME280;6016;41.928;25.556;2022-11-15T05:09:07;99703.22;;;10.18;78.65
11912;BME280;6016;41.928;25.556;2022-11-15T05:11:34;99696.97;;;10.19;78.50
11912;BME280;6016;41.928;25.556;2022-11-15T05:14:00;99696.13;;;10.18;78.87
11912;BME280;6016;41.928;25.556;2022-11-15T05:16:28;99702.81;;;10.22;78.32
11912;BME280;6016;41.928;25.556;2022-11-15T05:18:55;99695.75;;;10.23;78.47
11912;BME280;6016;41.928;25.556;2022-11-15T05:21:22;99704.50;;;10.23;78.54
11912;BME280;6016;41.928;25.556;2022-11-15T05:23:48;99697.78;;;10.19;78.55
11912;BME280;6016;41.928;25.556;2022-11-15T05:26:15;99704.91;;;10.07;78.70
11912;BME280;6016;41.928;25.556;2022-11-15T05:28:42;99695.06;;;9.98;80.05
11912;BME280;6016;41.928;25.556;2022-11-15T05:31:10;99707.91;;;9.91;80.32
11912;BME280;6016;41.928;25.556;2022-11-15T05:33:39;99701.66;;;9.92;80.31
11912;BME280;6016;41.928;25.556;2022-11-15T05:36:07;99705.72;;;9.85;80.63
11912;BME280;6016;41.928;25.556;2022-11-15T05:38:36;99716.16;;;9.98;80.89
11912;BME280;6016;41.928;25.556;2022-11-15T05:41:02;99716.63;;;10.03;79.95
11912;BME280;6016;41.928;25.556;2022-11-15T05:43:30;99710.88;;;10.09;80.28
11912;BME280;6016;41.928;25.556;2022-11-15T05:45:59;99717.38;;;10.05;80.63
11912;BME280;6016;41.928;25.556;2022-11-15T05:48:26;99718.06;;;10.07;79.96
11912;BME280;6016;41.928;25.556;2022-11-15T06:06:00;99725.34;;;10.93;76.55
11912;BME280;6016;41.928;25.556;2022-11-15T06:08:27;99726.72;;;10.76;77.15
11912;BME280;6016;41.928;25.556;2022-11-15T06:10:53;99538.72;;;9.53;78.56
11912;BME280;6016;41.928;25.556;2022-11-15T06:13:20;99728.16;;;10.69;78.81
11912;BME280;6016;41.928;25.556;2022-11-15T06:15:47;99737.16;;;10.66;78.87
11912;BME280;6016;41.928;25.556;2022-11-15T06:18:14;99732.41;;;10.60;78.15
11912;BME280;6016;41.928;25.556;2022-11-15T06:20:41;99646.22;;;9.94;78.92
11912;BME280;6016;41.928;25.556;2022-11-15T06:23:09;99742.25;;;10.47;79.32
11912;BME280;6016;41.928;25.556;2022-11-15T06:25:36;99741.66;;;10.43;79.72
11912;BME280;6016;41.928;25.556;2022-11-15T06:28:03;99738.38;;;10.39;80.03
11912;BME280;6016;41.928;25.556;2022-11-15T06:30:30;99729.50;;;10.40;80.58
11912;BME280;6016;41.928;25.556;2022-11-15T06:33:00;99736.03;;;10.48;80.07
11912;BME280;6016;41.928;25.556;2022-11-15T06:35:28;99736.63;;;10.51;79.91
11912;BME280;6016;41.928;25.556;2022-11-15T06:37:55;99720.19;;;10.36;79.94
11912;BME280;6016;41.928;25.556;2022-11-15T06:40:24;99739.97;;;10.53;80.21
11912;BME280;6016;41.928;25.556;2022-11-15T06:42:50;99663.53;;;10.08;80.85
11912;BME280;6016;41.928;25.556;2022-11-15T06:45:17;99719.84;;;10.41;80.86
11912;BME280;6016;41.928;25.556;2022-11-15T06:47:45;99739.97;;;10.53;81.07
11912;BME280;6016;41.928;25.556;2022-11-15T06:50:12;99707.97;;;10.24;80.80
11912;BME280;6016;41.928;25.556;2022-11-15T06:52:39;99729.16;;;10.57;81.33
11912;BME280;6016;41.928;25.556;2022-11-15T06:55:07;99736.72;;;10.61;80.72
11912;BME280;6016;41.928;25.556;2022-11-15T06:57:36;99740.38;;;10.70;81.63
11912;BME280;6016;41.928;25.556;2022-11-15T07:00:04;99707.56;;;10.63;81.14
11912;BME280;6016;41.928;25.556;2022-11-15T07:02:31;99726.72;;;10.76;80.83
11912;BME280;6016;41.928;25.556;2022-11-15T07:04:58;99725.38;;;10.82;81.22
11912;BME280;6016;41.928;25.556;2022-11-15T07:07:25;99719.69;;;10.87;81.65
11912;BME280;6016;41.928;25.556;2022-11-15T07:09:52;99720.16;;;10.92;81.24
11912;BME280;6016;41.928;25.556;2022-11-15T07:12:19;99693.44;;;10.85;81.09
11912;BME280;6016;41.928;25.556;2022-11-15T07:14:47;99719.41;;;11.01;80.97
11912;BME280;6016;41.928;25.556;2022-11-15T07:17:14;99631.81;;;10.53;81.20
11912;BME280;6016;41.928;25.556;2022-11-15T07:19:40;99673.41;;;10.82;81.22
11912;BME280;6016;41.928;25.556;2022-11-15T07:22:07;99724.66;;;11.13;80.67
11912;BME280;6016;41.928;25.556;2022-11-15T07:24:34;99658.47;;;10.72;80.82
11912;BME280;6016;41.928;25.556;2022-11-15T07:27:01;99648.53;;;10.75;80.20
11912;BME280;6016;41.928;25.556;2022-11-15T07:29:28;99714.16;;;11.22;80.27
11912;BME280;6016;41.928;25.556;2022-11-15T07:31:56;99710.44;;;11.25;79.81
11912;BME280;6016;41.928;25.556;2022-11-15T07:34:23;99670.94;;;11.02;80.55
11912;BME280;6016;41.928;25.556;2022-11-15T07:36:50;99704.56;;;11.21;79.41
11912;BME280;6016;41.928;25.556;2022-11-15T07:39:17;99703.84;;;11.19;79.69
11912;BME280;6016;41.928;25.556;2022-11-15T07:41:44;99634.38;;;10.76;79.68
11912;BME280;6016;41.928;25.556;2022-11-15T07:44:13;99617.22;;;10.49;79.69
11912;BME280;6016;41.928;25.556;2022-11-15T07:46:40;99718.31;;;11.04;80.27
11912;BME280;6016;41.928;25.556;2022-11-15T07:49:08;99697.00;;;10.95;80.82
11912;BME280;6016;41.928;25.556;2022-11-15T07:51:35;99717.28;;;10.95;81.25
11912;BME280;6016;41.928;25.556;2022-11-15T07:54:02;99727.16;;;11.14;81.82
11912;BME280;6016;41.928;25.556;2022-11-15T07:56:29;99725.53;;;11.23;81.50
11912;BME280;6016;41.928;25.556;2022-11-15T07:58:55;99725.16;;;11.28;80.57
11912;BME280;6016;41.928;25.556;2022-11-15T08:01:22;99728.50;;;11.30;81.33
11912;BME280;6016;41.928;25.556;2022-11-15T08:03:49;99720.91;;;11.36;80.46
11912;BME280;6016;41.928;25.556;2022-11-15T08:06:17;99725.09;;;11.39;80.63
11912;BME280;6016;41.928;25.556;2022-11-15T08:08:46;99719.31;;;11.45;81.38
11912;BME280;6016;41.928;25.556;2022-11-15T08:11:13;99716.25;;;11.50;80.01
11912;BME280;6016;41.928;25.556;2022-11-15T08:13:40;99716.66;;;11.45;80.16
11912;BME280;6016;41.928;25.556;2022-11-15T08:16:08;99703.13;;;11.38;79.80
11912;BME280;6016;41.928;25.556;2022-11-15T08:18:37;99695.22;;;11.38;80.50
11912;BME280;6016;41.928;25.556;2022-11-15T08:21:04;99698.88;;;11.47;80.48
11912;BME280;6016;41.928;25.556;2022-11-15T08:23:32;99722.88;;;11.65;79.91
11912;BME280;6016;41.928;25.556;2022-11-15T08:26:01;99714.09;;;11.65;80.56
11912;BME280;6016;41.928;25.556;2022-11-15T08:28:28;99712.75;;;11.71;80.61
11912;BME280;6016;41.928;25.556;2022-11-15T08:30:55;99711.25;;;11.78;81.33
11912;BME280;6016;41.928;25.556;2022-11-15T08:33:22;99665.13;;;11.51;81.23
11912;BME280;6016;41.928;25.556;2022-11-15T08:35:49;99708.66;;;11.88;80.00
11912;BME280;6016;41.928;25.556;2022-11-15T08:38:16;99713.25;;;11.86;80.62
11912;BME280;6016;41.928;25.556;2022-11-15T08:40:44;99707.56;;;11.90;79.90
11912;BME280;6016;41.928;25.556;2022-11-15T08:43:11;99705.34;;;11.95;79.88
11912;BME280;6016;41.928;25.556;2022-11-15T08:45:38;99713.16;;;11.97;79.56
11912;BME280;6016;41.928;25.556;2022-11-15T08:48:05;99704.84;;;12.02;79.22
11912;BME280;6016;41.928;25.556;2022-11-15T08:50:32;99669.00;;;11.88;80.19
11912;BME280;6016;41.928;25.556;2022-11-15T08:53:05;99701.66;;;12.08;79.92
11912;BME280;6016;41.928;25.556;2022-11-15T08:55:32;99624.41;;;11.63;79.71
11912;BME280;6016;41.928;25.556;2022-11-15T08:58:00;99693.84;;;12.06;79.69
11912;BME280;6016;41.928;25.556;2022-11-15T09:00:27;99653.16;;;11.88;79.33
11912;BME280;6016;41.928;25.556;2022-11-15T09:02:54;99612.59;;;11.67;79.27
11912;BME280;6016;41.928;25.556;2022-11-15T09:05:21;99642.16;;;11.92;79.00
11912;BME280;6016;41.928;25.556;2022-11-15T09:07:52;99651.69;;;12.05;78.83
11912;BME280;6016;41.928;25.556;2022-11-15T09:10:19;99605.16;;;11.82;78.42
11912;BME280;6016;41.928;25.556;2022-11-15T09:12:46;99670.22;;;12.15;78.85
11912;BME280;6016;41.928;25.556;2022-11-15T09:15:15;99670.97;;;12.36;77.79
11912;BME280;6016;41.928;25.556;2022-11-15T09:17:42;99656.88;;;12.36;78.48
11912;BME280;6016;41.928;25.556;2022-11-15T09:20:10;99655.78;;;12.48;77.78
11912;BME280;6016;41.928;25.556;2022-11-15T09:22:36;99659.84;;;12.52;77.51
11912;BME280;6016;41.928;25.556;2022-11-15T09:25:05;99645.50;;;12.55;78.17
11912;BME280;6016;41.928;25.556;2022-11-15T09:27:32;99641.88;;;12.56;78.15
11912;BME280;6016;41.928;25.556;2022-11-15T09:29:59;99647.44;;;12.53;77.36
11912;BME280;6016;41.928;25.556;2022-11-15T09:32:29;99640.59;;;12.50;77.90
11912;BME280;6016;41.928;25.556;2022-11-15T09:34:56;99631.56;;;12.53;77.88
11912;BME280;6016;41.928;25.556;2022-11-15T09:37:23;99629.06;;;12.51;77.15
11912;BME280;6016;41.928;25.556;2022-11-15T09:39:50;99626.16;;;12.55;78.06
11912;BME280;6016;41.928;25.556;2022-11-15T09:45:17;99624.47;;;12.63;76.91
11912;BME280;6016;41.928;25.556;2022-11-15T09:48:11;99544.66;;;12.19;77.64
11912;BME280;6016;41.928;25.556;2022-11-15T09:50:45;99588.81;;;12.58;77.64
11912;BME280;6016;41.928;25.556;2022-11-15T09:53:21;99607.47;;;12.76;76.25
11912;BME280;6016;41.928;25.556;2022-11-15T09:55:55;99554.56;;;12.46;76.10
11912;BME280;6016;41.928;25.556;2022-11-15T09:58:28;99561.63;;;12.65;76.51
11912;BME280;6016;41.928;25.556;2022-11-15T10:00:59;99596.81;;;12.95;76.08
11912;BME280;6016;41.928;25.556;2022-11-15T10:03:33;99601.25;;;13.05;75.54
11912;BME280;6016;41.928;25.556;2022-11-15T10:06:03;99583.16;;;13.10;75.42
11912;BME280;6016;41.928;25.556;2022-11-15T10:08:45;99558.38;;;12.91;75.25
11912;BME280;6016;41.928;25.556;2022-11-15T10:11:16;99512.31;;;12.64;75.35
11912;BME280;6016;41.928;25.556;2022-11-15T10:13:45;99576.44;;;13.06;75.18
11912;BME280;6016;41.928;25.556;2022-11-15T10:16:26;99535.78;;;12.97;75.49
11912;BME280;6016;41.928;25.556;2022-11-15T10:19:04;99562.75;;;13.20;74.84
11912;BME280;6016;41.928;25.556;2022-11-15T10:21:42;99573.69;;;13.35;73.94
11912;BME280;6016;41.928;25.556;2022-11-15T10:24:13;99571.47;;;13.41;74.08
11912;BME280;6016;41.928;25.556;2022-11-15T10:26:46;99555.84;;;13.47;74.23
11912;BME280;6016;41.928;25.556;2022-11-15T10:29:18;99544.31;;;13.29;73.84
11912;BME280;6016;41.928;25.556;2022-11-15T10:31:45;99553.59;;;13.43;74.44
11912;BME280;6016;41.928;25.556;2022-11-15T10:34:15;99530.09;;;13.30;74.71
11912;BME280;6016;41.928;25.556;2022-11-15T10:36:44;99550.28;;;13.41;74.85
11912;BME280;6016;41.928;25.556;2022-11-15T10:39:12;99508.16;;;13.09;74.79
11912;BME280;6016;41.928;25.556;2022-11-15T10:41:41;99544.78;;;13.52;74.75
11912;BME280;6016;41.928;25.556;2022-11-15T10:44:18;99524.94;;;13.28;73.93
11912;BME280;6016;41.928;25.556;2022-11-15T10:46:46;99541.00;;;13.55;72.70
11912;BME280;6016;41.928;25.556;2022-11-15T10:49:53;99536.25;;;13.58;74.25
11912;BME280;6016;41.928;25.556;2022-11-15T10:52:20;99506.00;;;13.51;72.94
11912;BME280;6016;41.928;25.556;2022-11-15T10:54:51;99479.16;;;13.36;72.64
11912;BME280;6016;41.928;25.556;2022-11-15T10:57:20;99536.56;;;13.55;72.90
11912;BME280;6016;41.928;25.556;2022-11-15T10:59:49;99529.41;;;13.56;71.79
11912;BME280;6016;41.928;25.556;2022-11-15T11:02:30;99478.47;;;13.06;72.82
11912;BME280;6016;41.928;25.556;2022-11-15T11:04:59;99520.16;;;13.32;74.03
11912;BME280;6016;41.928;25.556;2022-11-15T11:07:28;99480.97;;;13.07;74.27
11912;BME280;6016;41.928;25.556;2022-11-15T11:10:00;99525.88;;;13.37;74.43
11912;BME280;6016;41.928;25.556;2022-11-15T11:12:29;99481.53;;;13.11;73.91
11912;BME280;6016;41.928;25.556;2022-11-15T11:14:58;99473.28;;;13.14;73.42
11912;BME280;6016;41.928;25.556;2022-11-15T11:17:32;99495.03;;;13.08;74.68
11912;BME280;6016;41.928;25.556;2022-11-15T11:20:08;99505.41;;;13.29;74.91
11912;BME280;6016;41.928;25.556;2022-11-15T11:22:42;99439.66;;;12.97;74.00
11912;BME280;6016;41.928;25.556;2022-11-15T11:25:26;99430.47;;;12.91;73.59
11912;BME280;6016;41.928;25.556;2022-11-15T11:28:03;99494.13;;;13.27;74.15
11912;BME280;6016;41.928;25.556;2022-11-15T11:30:41;99497.59;;;13.28;73.40
11912;BME280;6016;41.928;25.556;2022-11-15T11:33:16;99465.66;;;13.01;73.14
11912;BME280;6016;41.928;25.556;2022-11-15T11:36:03;99484.66;;;13.25;73.91
11912;BME280;6016;41.928;25.556;2022-11-15T11:38:47;99482.16;;;13.23;72.66
11912;BME280;6016;41.928;25.556;2022-11-15T11:41:24;99431.59;;;12.88;73.52
11912;BME280;6016;41.928;25.556;2022-11-15T11:44:07;99406.84;;;12.70;72.77
11912;BME280;6016;41.928;25.556;2022-11-15T11:46:52;99488.25;;;12.95;72.96
11912;BME280;6016;41.928;25.556;2022-11-15T11:49:26;99466.94;;;13.25;72.33
11912;BME280;6016;41.928;25.556;2022-11-15T11:52:01;99471.22;;;13.36;72.63
11912;BME280;6016;41.928;25.556;2022-11-15T11:54:36;99467.28;;;13.40;71.04
11912;BME280;6016;41.928;25.556;2022-11-15T11:57:07;99247.56;;;12.00;67.72
11912;BME280;6016;41.928;25.556;2022-11-15T11:59:42;99456.88;;;13.29;65.61
11912;BME280;6016;41.928;25.556;2022-11-15T12:02:14;99430.16;;;13.22;67.11
11912;BME280;6016;41.928;25.556;2022-11-15T12:04:46;99447.66;;;13.33;66.29
11912;BME280;6016;41.928;25.556;2022-11-15T12:07:19;99451.75;;;13.27;67.64
11912;BME280;6016;41.928;25.556;2022-11-15T12:09:53;99451.09;;;13.15;66.67
11912;BME280;6016;41.928;25.556;2022-11-15T12:12:29;99422.06;;;12.95;67.96
11912;BME280;6016;41.928;25.556;2022-11-15T12:15:01;99337.06;;;12.43;70.32
11912;BME280;6016;41.928;25.556;2022-11-15T12:17:30;99435.69;;;13.29;69.91
11912;BME280;6016;41.928;25.556;2022-11-15T12:19:58;99434.13;;;13.36;68.32
11912;BME280;6016;41.928;25.556;2022-11-15T12:22:35;99434.13;;;13.36;66.37
11912;BME280;6016;41.928;25.556;2022-11-15T12:25:06;99431.63;;;13.34;66.31
11912;BME280;6016;41.928;25.556;2022-11-15T12:27:38;99302.41;;;12.46;65.51
11912;BME280;6016;41.928;25.556;2022-11-15T12:30:11;99427.75;;;13.29;67.39
11912;BME280;6016;41.928;25.556;2022-11-15T12:32:48;99416.31;;;13.28;66.38
11912;BME280;6016;41.928;25.556;2022-11-15T12:35:23;99418.50;;;13.33;65.93
11912;BME280;6016;41.928;25.556;2022-11-15T12:37:53;99323.00;;;12.70;65.72
11912;BME280;6016;41.928;25.556;2022-11-15T12:40:37;99281.38;;;12.44;65.24
11912;BME280;6016;41.928;25.556;2022-11-15T12:46:12;99405.56;;;13.30;67.45
11912;BME280;6016;41.928;25.556;2022-11-15T12:48:57;99416.41;;;13.36;65.88
11912;BME280;6016;41.928;25.556;2022-11-15T12:54:51;99402.09;;;13.29;65.77
11912;BME280;6016;41.928;25.556;2022-11-15T12:57:28;99396.69;;;13.21;67.43
11912;BME280;6016;41.928;25.556;2022-11-15T12:59:57;99398.00;;;13.17;68.29
11912;BME280;6016;41.928;25.556;2022-11-15T13:02:29;99305.03;;;12.46;68.84
11912;BME280;6016;41.928;25.556;2022-11-15T13:05:50;99329.34;;;12.59;66.58
11912;BME280;6016;41.928;25.556;2022-11-15T13:08:08;99386.94;;;13.03;67.25
11912;BME280;6016;41.928;25.556;2022-11-15T13:10:35;99300.25;;;12.49;67.26
11912;BME280;6016;41.928;25.556;2022-11-15T13:13:03;99383.13;;;13.06;66.72
11912;BME280;6016;41.928;25.556;2022-11-15T13:15:33;99350.09;;;12.82;66.01
11912;BME280;6016;41.928;25.556;2022-11-15T13:21:00;99384.72;;;12.99;67.41
11912;BME280;6016;41.928;25.556;2022-11-15T13:23:28;99368.84;;;12.99;66.63
11912;BME280;6016;41.928;25.556;2022-11-15T13:26:08;99368.16;;;12.97;65.98
11912;BME280;6016;41.928;25.556;2022-11-15T13:28:39;99364.41;;;12.89;66.32
11912;BME280;6016;41.928;25.556;2022-11-15T13:31:30;99362.31;;;12.93;66.69
11912;BME280;6016;41.928;25.556;2022-11-15T13:34:03;99359.50;;;12.94;66.51
11912;BME280;6016;41.928;25.556;2022-11-15T13:36:32;99358.72;;;13.12;67.71
11912;BME280;6016;41.928;25.556;2022-11-15T13:39:03;99335.41;;;13.16;65.55
11912;BME280;6016;41.928;25.556;2022-11-15T13:41:32;99244.13;;;12.56;64.20
11912;BME280;6016;41.928;25.556;2022-11-15T13:44:00;99324.50;;;13.01;65.02
11912;BME280;6016;41.928;25.556;2022-11-15T13:46:29;99354.69;;;13.08;64.70